createdAt,value
2023-07-15T00:01:40.583Z,100230.53
2023-07-15T00:04:15.359Z,100235.66
2023-07-15T00:06:44.303Z,100232.16
2023-07-15T00:09:12.702Z,100234.14
2023-07-15T00:11:43.317Z,100228.34
2023-07-15T00:14:18.148Z,100225.70
2023-07-15T00:16:46.704Z,100226.45
2023-07-15T00:19:15.170Z,100225.58
2023-07-15T00:21:43.525Z,100228.59
2023-07-15T00:24:12.998Z,100218.67
2023-07-15T00:26:42.349Z,100218.84
2023-07-15T00:29:10.794Z,100217.25
2023-07-15T00:31:39.246Z,100213.01
2023-07-15T00:34:09.755Z,100213.58
2023-07-15T00:36:38.434Z,100212.73
2023-07-15T00:39:06.823Z,100207.64
2023-07-15T00:41:37.133Z,100201.33
2023-07-15T00:44:07.746Z,100202.06
2023-07-15T00:47:01.320Z,100200.30
2023-07-15T00:49:33.368Z,100204.39
2023-07-15T00:52:04.500Z,100202.26
2023-07-15T00:54:51.121Z,100199.77
2023-07-15T00:57:21.814Z,100201.35
2023-07-15T00:59:53.596Z,100197.48
2023-07-15T01:02:22.342Z,100200.82
2023-07-15T01:04:51.373Z,100193.95
2023-07-15T01:07:19.708Z,100196.42
2023-07-15T01:09:48.802Z,100197.88
2023-07-15T01:12:17.181Z,100197.37
2023-07-15T01:14:45.846Z,100195.83
2023-07-15T01:17:14.316Z,100200.95
2023-07-15T01:19:42.759Z,100201.81
2023-07-15T01:22:11.405Z,100199.14
2023-07-15T01:24:40.616Z,100196.33
2023-07-15T01:27:10.159Z,100204.64
2023-07-15T01:29:38.672Z,100204.64
2023-07-15T01:32:07.137Z,100206.60
2023-07-15T01:34:35.586Z,100204.49
2023-07-15T01:37:04.805Z,100202.02
2023-07-15T01:39:33.123Z,100197.09
2023-07-15T01:42:01.459Z,100199.73
2023-07-15T01:44:29.841Z,100200.45
2023-07-15T01:46:58.189Z,100200.48
2023-07-15T01:49:26.598Z,100195.58
2023-07-15T01:51:55.657Z,100191.40
2023-07-15T01:54:23.881Z,100193.06
2023-07-15T01:56:52.226Z,100182.88
2023-07-15T01:59:20.490Z,100179.92
2023-07-15T02:01:48.744Z,100172.71
2023-07-15T02:04:17.665Z,100167.23
2023-07-15T02:06:46.013Z,100169.73
2023-07-15T02:09:14.237Z,100161.26
2023-07-15T02:11:43.069Z,100161.11
2023-07-15T02:14:12.072Z,100155.00
2023-07-15T02:16:40.372Z,100149.59
2023-07-15T02:19:08.995Z,100147.02
2023-07-15T02:21:37.441Z,100148.84
2023-07-15T02:24:06.032Z,100143.60
2023-07-15T02:26:34.332Z,100143.33
2023-07-15T02:29:02.657Z,100144.80
2023-07-15T02:31:30.951Z,100139.06
2023-07-15T02:33:59.467Z,100143.98
2023-07-15T02:36:27.804Z,100140.45
2023-07-15T02:38:56.069Z,100144.31
2023-07-15T02:41:24.340Z,100139.91
2023-07-15T02:43:52.912Z,100136.58
2023-07-15T02:46:21.142Z,100135.00
2023-07-15T02:48:49.630Z,100133.95
2023-07-15T02:51:18.202Z,100137.11
2023-07-15T02:53:48.780Z,100138.30
2023-07-15T02:56:17.378Z,100136.48
2023-07-15T02:58:45.790Z,100140.88
2023-07-15T03:01:14.074Z,100132.88
2023-07-15T03:03:42.356Z,100131.98
2023-07-15T03:06:10.771Z,100129.15
2023-07-15T03:08:39.687Z,100131.63
2023-07-15T03:11:08.948Z,100132.12
2023-07-15T03:13:37.205Z,100134.04
2023-07-15T03:16:05.592Z,100128.91
2023-07-15T03:18:33.974Z,100124.46
2023-07-15T03:21:02.243Z,100118.79
2023-07-15T03:23:30.448Z,100121.59
2023-07-15T03:25:58.734Z,100114.14
2023-07-15T03:28:26.989Z,100112.04
2023-07-15T03:30:55.261Z,100111.50
2023-07-15T03:33:23.533Z,100113.27
2023-07-15T03:35:51.746Z,100109.05
2023-07-15T03:38:19.992Z,100106.91
2023-07-15T03:40:51.109Z,100103.88
2023-07-15T03:43:19.323Z,100101.73
2023-07-15T03:45:48.737Z,100100.84
2023-07-15T03:48:17.196Z,100096.20
2023-07-15T03:50:46.514Z,100096.20
2023-07-15T03:53:14.998Z,100097.73
2023-07-15T03:55:43.383Z,100091.71
2023-07-15T03:58:11.646Z,100092.73
2023-07-15T04:00:39.910Z,100082.63
2023-07-15T04:03:08.831Z,100078.20
2023-07-15T04:05:37.134Z,100073.97
2023-07-15T04:08:05.707Z,100072.38
2023-07-15T04:10:34.112Z,100068.15
2023-07-15T04:13:02.688Z,100067.25
2023-07-15T04:15:32.225Z,100065.65
2023-07-15T04:18:00.498Z,100063.52
2023-07-15T04:20:28.854Z,100071.23
2023-07-15T04:22:57.231Z,100078.79
2023-07-15T04:25:25.575Z,100081.74
2023-07-15T04:27:53.942Z,100076.03
2023-07-15T04:30:22.302Z,100073.17
2023-07-15T04:32:50.696Z,100063.23
2023-07-15T04:35:19.039Z,100064.81
2023-07-15T04:37:47.294Z,100070.44
2023-07-15T04:40:15.662Z,100070.39
2023-07-15T04:42:46.543Z,100074.23
2023-07-15T04:45:15.561Z,100081.40
2023-07-15T04:47:43.872Z,100080.25
2023-07-15T04:50:12.309Z,100080.52
2023-07-15T04:52:41.051Z,100083.61
2023-07-15T04:55:10.545Z,100076.30
2023-07-15T04:57:39.612Z,100076.39
2023-07-15T05:00:17.768Z,100074.70
2023-07-15T05:02:46.087Z,100077.78
2023-07-15T05:05:15.725Z,100079.10
2023-07-15T05:07:57.747Z,100076.59
2023-07-15T05:10:27.595Z,100082.39
2023-07-15T05:12:55.868Z,100086.23
2023-07-15T05:15:24.149Z,100086.84
2023-07-15T05:17:52.531Z,100090.18
2023-07-15T05:20:20.935Z,100090.16
2023-07-15T05:22:49.752Z,100084.79
2023-07-15T05:25:18.371Z,100079.38
2023-07-15T05:27:46.822Z,100075.52
2023-07-15T05:30:15.238Z,100075.70
2023-07-15T05:32:43.718Z,100074.67
2023-07-15T05:35:12.675Z,100072.55
2023-07-15T05:37:41.821Z,100072.24
2023-07-15T05:40:11.450Z,100071.39
2023-07-15T05:42:46.834Z,100072.13
2023-07-15T05:45:15.219Z,100065.59
2023-07-15T05:47:43.569Z,100068.30
2023-07-15T05:50:11.833Z,100065.95
2023-07-15T05:52:40.173Z,100063.81
2023-07-15T05:55:08.923Z,100061.73
2023-07-15T05:57:37.353Z,100056.36
2023-07-15T06:00:09.196Z,100055.80
2023-07-15T06:02:40.458Z,100047.75
2023-07-15T06:05:09.533Z,100046.59
2023-07-15T06:07:37.835Z,100044.75
2023-07-15T06:10:06.822Z,100049.77
2023-07-15T06:12:35.379Z,100044.67
2023-07-15T06:15:03.821Z,100044.63
2023-07-15T06:17:32.090Z,100046.91
2023-07-15T06:20:00.699Z,100049.33
2023-07-15T06:22:29.098Z,100043.95
2023-07-15T06:24:57.465Z,100043.38
2023-07-15T06:27:25.764Z,100038.66
2023-07-15T06:29:54.331Z,100032.71
2023-07-15T06:32:22.621Z,100027.33
2023-07-15T06:34:50.961Z,100023.54
2023-07-15T06:37:19.298Z,100025.11
2023-07-15T06:39:47.676Z,100027.53
2023-07-15T06:42:16.228Z,100027.30
2023-07-15T06:44:44.800Z,100026.56
2023-07-15T06:47:13.498Z,100023.50
2023-07-15T06:49:41.919Z,100017.58
2023-07-15T06:52:10.289Z,100020.77
2023-07-15T06:54:38.556Z,100022.27
2023-07-15T06:57:06.928Z,100021.30
2023-07-15T06:59:35.203Z,100024.73
2023-07-15T07:02:03.592Z,100024.77
2023-07-15T07:04:31.970Z,100021.39
2023-07-15T07:07:00.285Z,100017.41
2023-07-15T07:09:28.733Z,100015.33
2023-07-15T07:11:57.106Z,100012.55
2023-07-15T07:14:25.441Z,100011.33
2023-07-15T07:16:54.321Z,100014.22
2023-07-15T07:19:22.629Z,100011.11
2023-07-15T07:21:50.844Z,100014.44
2023-07-15T07:24:19.141Z,100018.56
2023-07-15T07:26:49.457Z,100017.42
2023-07-15T07:29:18.075Z,100013.83
2023-07-15T07:31:46.747Z,100003.78
2023-07-15T07:34:15.297Z,100005.45
2023-07-15T07:36:43.559Z,100007.86
2023-07-15T07:39:12.361Z,100010.05
2023-07-15T07:41:41.785Z,100005.01
2023-07-15T07:44:12.904Z,100006.02
2023-07-15T07:46:41.325Z,100003.88
2023-07-15T07:49:09.747Z,100002.33
2023-07-15T07:51:38.007Z,99997.48
2023-07-15T07:54:06.305Z,99996.51
2023-07-15T07:56:36.395Z,99984.27
2023-07-15T07:59:04.674Z,99982.65
2023-07-15T08:01:33.299Z,99981.80
2023-07-15T08:04:02.182Z,99982.32
2023-07-15T08:06:31.054Z,99980.84
2023-07-15T08:08:59.408Z,99981.80
2023-07-15T08:11:27.773Z,99977.00
2023-07-15T08:13:56.076Z,99978.67
2023-07-15T08:16:35.720Z,99974.33
2023-07-15T08:19:07.476Z,99981.44
2023-07-15T08:21:36.170Z,99974.25
2023-07-15T08:24:04.763Z,99973.10
2023-07-15T08:26:33.079Z,99974.19
2023-07-15T08:29:05.145Z,99974.91
2023-07-15T08:31:35.031Z,99977.64
2023-07-15T08:34:04.784Z,99978.15
2023-07-15T08:36:33.421Z,99974.39
2023-07-15T08:39:01.784Z,99970.48
2023-07-15T08:41:30.161Z,99971.59
2023-07-15T08:43:58.652Z,99962.71
2023-07-15T08:46:29.227Z,99959.69
2023-07-15T08:48:59.317Z,99958.45
2023-07-15T08:51:35.628Z,99958.42
2023-07-15T08:54:05.145Z,99955.78
2023-07-15T08:56:36.067Z,99957.97
2023-07-15T08:59:08.131Z,99954.70
2023-07-15T09:01:36.985Z,99949.39
2023-07-15T09:04:05.838Z,99945.23
2023-07-15T09:06:34.617Z,99950.77
2023-07-15T09:09:02.998Z,99949.48
2023-07-15T09:11:44.074Z,99948.45
2023-07-15T09:14:16.576Z,99939.23
2023-07-15T09:16:45.613Z,99942.23
2023-07-15T09:19:14.308Z,99951.39
2023-07-15T09:22:04.609Z,99939.58
2023-07-15T09:24:36.602Z,99936.72
2023-07-15T09:27:06.178Z,99931.42
2023-07-15T09:29:34.835Z,99933.52
2023-07-15T09:32:03.195Z,99925.45
2023-07-15T09:34:31.656Z,99926.46
2023-07-15T09:36:59.965Z,99927.93
2023-07-15T09:39:28.183Z,99929.01
2023-07-15T09:42:07.593Z,99923.15
2023-07-15T09:44:41.809Z,99922.51
2023-07-15T09:47:10.296Z,99926.78
2023-07-15T09:49:38.808Z,99921.98
2023-07-15T09:52:07.847Z,99917.13
2023-07-15T09:54:37.282Z,99917.41
2023-07-15T09:57:23.821Z,99912.34
2023-07-15T09:59:54.465Z,99906.11
2023-07-15T10:02:36.941Z,99900.10
2023-07-15T10:05:07.030Z,99902.54
2023-07-15T10:07:35.864Z,99903.84
2023-07-15T10:10:06.893Z,99893.39
2023-07-15T10:12:37.532Z,99896.43
2023-07-15T10:15:06.635Z,99899.61
2023-07-15T10:17:37.329Z,99891.83
2023-07-15T10:20:16.399Z,99895.60
2023-07-15T10:22:48.498Z,99895.83
2023-07-15T10:25:17.633Z,99891.27
2023-07-15T10:27:46.077Z,99888.04
2023-07-15T10:30:28.493Z,99889.58
2023-07-15T10:33:00.439Z,99890.78
2023-07-15T10:35:30.412Z,99878.38
2023-07-15T10:38:22.164Z,99879.46
2023-07-15T10:41:04.236Z,99877.23
2023-07-15T10:43:35.622Z,99876.62
2023-07-15T10:46:12.025Z,99876.79
2023-07-15T10:48:41.307Z,99878.20
2023-07-15T10:51:10.485Z,99874.39
2023-07-15T10:53:43.982Z,99869.91
2023-07-15T10:56:14.338Z,99863.80
2023-07-15T10:58:43.354Z,99856.86
2023-07-15T11:01:14.578Z,99852.77
2023-07-15T11:03:43.675Z,99852.79
2023-07-15T11:06:14.321Z,99851.38
2023-07-15T11:08:45.699Z,99850.52
2023-07-15T11:11:15.259Z,99853.42
2023-07-15T11:13:43.818Z,99848.09
2023-07-15T11:16:12.511Z,99840.60
2023-07-15T11:18:41.084Z,99847.61
2023-07-15T11:21:10.209Z,99846.57
2023-07-15T11:23:38.637Z,99840.65
2023-07-15T11:26:10.681Z,99832.30
2023-07-15T11:28:51.101Z,99829.40
2023-07-15T11:31:27.499Z,99836.73
2023-07-15T11:33:58.902Z,99834.02
2023-07-15T11:36:27.258Z,99832.28
2023-07-15T11:38:55.667Z,99835.48
2023-07-15T11:41:27.115Z,99837.25
2023-07-15T11:43:55.757Z,99837.83
2023-07-15T11:46:24.931Z,99832.45
2023-07-15T11:48:53.270Z,99835.28
2023-07-15T11:51:22.827Z,99830.11
2023-07-15T11:53:54.755Z,99830.10
2023-07-15T11:56:36.581Z,99823.98
2023-07-15T11:59:32.247Z,99821.06
2023-07-15T12:02:05.664Z,99832.08
2023-07-15T12:04:34.296Z,99833.07
2023-07-15T12:07:06.149Z,99828.29
2023-07-15T12:09:35.094Z,99825.52
2023-07-15T12:12:03.789Z,99825.80
2023-07-15T12:14:32.803Z,99827.84
2023-07-15T12:17:04.090Z,99835.98
2023-07-15T12:19:34.166Z,99835.55
2023-07-15T12:22:02.479Z,99826.80
2023-07-15T12:24:30.787Z,99818.92
2023-07-15T12:26:59.048Z,99813.64
2023-07-15T12:29:27.347Z,99820.63
2023-07-15T12:31:55.640Z,99823.71
2023-07-15T12:34:24.591Z,99815.87
2023-07-15T12:36:52.772Z,99814.55
2023-07-15T12:39:21.077Z,99808.17
2023-07-15T12:41:49.614Z,99815.94
2023-07-15T12:44:17.936Z,99810.52
2023-07-15T12:46:46.253Z,99801.64
2023-07-15T12:49:14.722Z,99804.55
2023-07-15T12:51:47.154Z,99801.84
2023-07-15T12:54:16.560Z,99797.85
2023-07-15T12:56:45.283Z,99793.37
2023-07-15T12:59:13.662Z,99796.81
2023-07-15T13:01:42.140Z,99789.50
2023-07-15T13:04:10.695Z,99788.05
2023-07-15T13:06:39.185Z,99787.24
2023-07-15T13:09:07.596Z,99795.45
2023-07-15T13:11:35.860Z,99799.95
2023-07-15T13:14:05.098Z,99796.50
2023-07-15T13:16:33.607Z,99791.82
2023-07-15T13:19:02.020Z,99794.09
2023-07-15T13:21:31.160Z,99788.45
2023-07-15T13:23:59.642Z,99784.45
2023-07-15T13:26:28.003Z,99778.77
2023-07-15T13:28:56.248Z,99781.54
2023-07-15T13:31:24.784Z,99779.05
2023-07-15T13:33:53.233Z,99776.03
2023-07-15T13:36:21.648Z,99778.77
2023-07-15T13:38:52.662Z,99777.38
2023-07-15T13:41:23.896Z,99770.02
2023-07-15T13:43:52.607Z,99767.34
2023-07-15T13:46:20.979Z,99768.89
2023-07-15T13:48:50.396Z,99771.70
2023-07-15T13:51:19.101Z,99768.55
2023-07-15T13:53:47.356Z,99768.20
2023-07-15T13:56:15.648Z,99766.36
2023-07-15T13:58:43.987Z,99766.36
2023-07-15T14:01:13.907Z,99768.39
2023-07-15T14:03:42.575Z,99759.81
2023-07-15T14:06:10.957Z,99757.57
2023-07-15T14:08:39.250Z,99756.13
2023-07-15T14:11:07.527Z,99759.72
2023-07-15T14:13:37.084Z,99754.95
2023-07-15T14:16:05.804Z,99755.05
2023-07-15T14:18:37.214Z,99757.70
2023-07-15T14:21:05.918Z,99758.95
2023-07-15T14:23:34.441Z,99755.23
2023-07-15T14:26:03.536Z,99751.38
2023-07-15T14:28:31.972Z,99745.90
2023-07-15T14:31:00.318Z,99746.66
2023-07-15T14:33:28.929Z,99747.48
2023-07-15T14:35:57.627Z,99754.08
2023-07-15T14:38:26.018Z,99750.82
2023-07-15T14:40:54.242Z,99751.73
2023-07-15T14:43:22.690Z,99751.38
2023-07-15T14:45:51.044Z,99754.23
2023-07-15T14:48:19.333Z,99756.41
2023-07-15T14:50:47.693Z,99759.63
2023-07-15T14:53:16.037Z,99754.27
2023-07-15T14:55:44.317Z,99751.86
2023-07-15T14:58:12.879Z,99754.19
2023-07-15T15:00:41.304Z,99756.52
2023-07-15T15:03:09.804Z,99758.57
2023-07-15T15:05:38.434Z,99760.21
2023-07-15T15:08:06.713Z,99758.92
2023-07-15T15:10:35.152Z,99758.14
2023-07-15T15:13:03.610Z,99759.27
2023-07-15T15:15:32.753Z,99759.00
2023-07-15T15:18:01.758Z,99758.06
2023-07-15T15:20:30.217Z,99752.61
2023-07-15T15:22:58.903Z,99752.70
2023-07-15T15:25:27.457Z,99748.81
2023-07-15T15:27:56.897Z,99751.16
2023-07-15T15:30:25.401Z,99750.47
2023-07-15T15:32:53.891Z,99747.60
2023-07-15T15:35:22.462Z,99747.81
2023-07-15T15:37:50.793Z,99740.41
2023-07-15T15:40:19.921Z,99733.73
2023-07-15T15:42:48.256Z,99731.45
2023-07-15T15:45:16.659Z,99732.97
2023-07-15T15:47:44.984Z,99730.72
2023-07-15T15:50:13.411Z,99733.23
2023-07-15T15:52:48.261Z,99726.14
2023-07-15T15:55:17.856Z,99722.89
2023-07-15T15:57:46.968Z,99717.42
2023-07-15T16:00:20.662Z,99714.56
2023-07-15T16:02:49.330Z,99714.92
2023-07-15T16:05:17.992Z,99712.89
2023-07-15T16:07:46.601Z,99712.84
2023-07-15T16:10:15.002Z,99714.34
2023-07-15T16:12:43.434Z,99713.77
2023-07-15T16:15:11.985Z,99716.34
2023-07-15T16:17:41.105Z,99714.76
2023-07-15T16:20:10.665Z,99713.69
2023-07-15T16:22:39.151Z,99715.64
2023-07-15T16:25:09.297Z,99714.49
2023-07-15T16:27:37.957Z,99714.96
2023-07-15T16:30:07.786Z,99711.53
2023-07-15T16:32:36.748Z,99711.52
2023-07-15T16:35:05.618Z,99718.64
2023-07-15T16:37:33.924Z,99719.27
2023-07-15T16:40:04.951Z,99723.95
2023-07-15T16:42:33.423Z,99723.79
2023-07-15T16:45:02.431Z,99721.90
2023-07-15T16:47:32.637Z,99717.90
2023-07-15T16:50:01.521Z,99716.28
2023-07-15T16:52:29.869Z,99717.98
2023-07-15T16:54:58.307Z,99714.30
2023-07-15T16:57:27.820Z,99718.79
2023-07-15T16:59:56.549Z,99716.92
2023-07-15T17:02:25.506Z,99717.38
2023-07-15T17:04:53.799Z,99715.17
2023-07-15T17:07:22.128Z,99717.32
2023-07-15T17:09:50.570Z,99719.36
2023-07-15T17:12:18.865Z,99719.37
2023-07-15T17:14:47.162Z,99720.80
2023-07-15T17:17:15.398Z,99721.73
2023-07-15T17:19:43.716Z,99723.02
2023-07-15T17:22:12.185Z,99724.77
2023-07-15T17:24:40.649Z,99721.34
2023-07-15T17:27:09.040Z,99726.11
2023-07-15T17:29:37.415Z,99720.95
2023-07-15T17:32:05.923Z,99723.13
2023-07-15T17:34:34.292Z,99722.91
2023-07-15T17:37:02.553Z,99719.13
2023-07-15T17:39:30.903Z,99717.12
2023-07-15T17:42:01.792Z,99719.23
2023-07-15T17:44:31.458Z,99723.38
2023-07-15T17:47:00.577Z,99727.52
2023-07-15T17:49:28.739Z,99731.30
2023-07-15T17:51:57.015Z,99736.52
2023-07-15T17:54:25.527Z,99732.46
2023-07-15T17:56:55.371Z,99732.81
2023-07-15T17:59:23.759Z,99735.95
2023-07-15T18:01:52.006Z,99736.63
2023-07-15T18:04:20.413Z,99727.58
2023-07-15T18:06:48.689Z,99729.59
2023-07-15T18:09:17.193Z,99726.78
2023-07-15T18:11:45.554Z,99727.52
2023-07-15T18:14:13.864Z,99727.29
2023-07-15T18:16:42.299Z,99726.99
2023-07-15T18:19:11.807Z,99726.86
2023-07-15T18:21:40.326Z,99725.02
2023-07-15T18:24:08.584Z,99724.89
2023-07-15T18:26:37.464Z,99724.89
2023-07-15T18:29:05.734Z,99724.67
2023-07-15T18:31:35.861Z,99723.48
2023-07-15T18:34:17.800Z,99720.27
2023-07-15T18:36:53.313Z,99718.80
2023-07-15T18:39:21.692Z,99720.48
2023-07-15T18:41:50.030Z,99726.75
2023-07-15T18:44:18.454Z,99730.76
2023-07-15T18:46:46.894Z,99734.56
2023-07-15T18:49:15.648Z,99733.02
2023-07-15T18:51:44.329Z,99737.16
2023-07-15T18:54:12.674Z,99744.52
2023-07-15T18:56:40.894Z,99744.02
2023-07-15T18:59:09.507Z,99741.93
2023-07-15T19:01:37.915Z,99736.77
2023-07-15T19:04:06.209Z,99736.63
2023-07-15T19:06:34.621Z,99741.11
2023-07-15T19:09:07.517Z,99739.02
2023-07-15T19:11:37.635Z,99734.17
2023-07-15T19:14:06.418Z,99731.30
2023-07-15T19:16:34.843Z,99730.38
2023-07-15T19:19:30.668Z,99725.20
2023-07-15T19:22:02.129Z,99724.54
2023-07-15T19:24:30.729Z,99725.25
2023-07-15T19:26:59.301Z,99726.27
2023-07-15T19:29:28.767Z,99723.02
2023-07-15T19:31:57.386Z,99725.02
2023-07-15T19:34:30.082Z,99724.31
2023-07-15T19:36:58.510Z,99726.27
2023-07-15T19:39:26.947Z,99719.77
2023-07-15T19:41:56.335Z,99718.40
2023-07-15T19:44:24.859Z,99710.61
2023-07-15T19:46:53.266Z,99704.63
2023-07-15T19:49:21.600Z,99707.69
2023-07-15T19:51:49.902Z,99707.55
2023-07-15T19:54:18.210Z,99709.36
2023-07-15T19:56:46.609Z,99703.98
2023-07-15T19:59:14.811Z,99700.59
2023-07-15T20:01:43.070Z,99696.27
2023-07-15T20:04:11.490Z,99691.94
2023-07-15T20:06:39.870Z,99688.92
2023-07-15T20:09:09.323Z,99689.43
2023-07-15T20:11:37.684Z,99683.66
2023-07-15T20:14:06.031Z,99683.80
2023-07-15T20:16:37.862Z,99674.70
2023-07-15T20:19:06.561Z,99664.65
2023-07-15T20:21:37.324Z,99659.84
2023-07-15T20:24:09.026Z,99661.40
2023-07-15T20:26:54.085Z,99655.52
2023-07-15T20:29:45.494Z,99649.67
2023-07-15T20:32:16.295Z,99653.95
2023-07-15T20:34:45.080Z,99652.65
2023-07-15T20:37:14.541Z,99652.92
2023-07-15T20:39:42.674Z,99643.85
2023-07-15T20:42:11.710Z,99638.88
2023-07-15T20:44:40.332Z,99633.21
2023-07-15T20:47:08.692Z,99633.45
2023-07-15T20:49:44.893Z,99629.57
2023-07-15T20:52:18.774Z,99630.59
2023-07-15T20:54:54.711Z,99629.02
2023-07-15T21:00:35.258Z,99632.61
2023-07-15T21:03:08.933Z,99633.17
2023-07-15T21:05:38.253Z,99633.70
2023-07-15T21:08:10.013Z,99638.20
2023-07-15T21:11:18.713Z,99638.11
2023-07-15T21:13:56.376Z,99638.06
2023-07-15T21:16:32.287Z,99638.42
2023-07-15T21:19:00.634Z,99642.98
2023-07-15T21:21:29.811Z,99645.09
2023-07-15T21:23:58.779Z,99646.06
2023-07-15T21:26:28.465Z,99651.35
2023-07-15T21:28:56.859Z,99649.45
2023-07-15T21:31:25.203Z,99643.99
2023-07-15T21:33:54.671Z,99638.54
2023-07-15T21:36:23.105Z,99643.99
2023-07-15T21:38:51.532Z,99646.05
2023-07-15T21:41:20.168Z,99643.65
2023-07-15T21:43:48.588Z,99644.98
2023-07-15T21:46:17.142Z,99641.15
2023-07-15T21:48:45.893Z,99642.16
2023-07-15T21:51:14.413Z,99640.71
2023-07-15T21:53:42.889Z,99639.23
2023-07-15T21:56:11.282Z,99635.50
2023-07-15T21:58:39.559Z,99635.69
2023-07-15T22:01:07.919Z,99634.27
2023-07-15T22:03:36.299Z,99625.84
2023-07-15T22:06:04.721Z,99630.50
2023-07-15T22:08:33.067Z,99623.59
2023-07-15T22:11:01.517Z,99627.01
2023-07-15T22:13:29.872Z,99629.90
2023-07-15T22:15:58.309Z,99635.65
2023-07-15T22:18:39.950Z,99634.61
2023-07-15T22:21:10.280Z,99631.23
2023-07-15T22:23:38.722Z,99630.67
2023-07-15T22:26:07.144Z,99633.09
2023-07-15T22:28:35.557Z,99630.34
2023-07-15T22:31:04.301Z,99631.34
2023-07-15T22:33:32.734Z,99623.01
2023-07-15T22:36:02.084Z,99624.18
2023-07-15T22:38:30.452Z,99626.06
2023-07-15T22:40:58.902Z,99629.51
2023-07-15T22:43:27.187Z,99626.59
2023-07-15T22:45:57.489Z,99623.61
2023-07-15T22:48:27.305Z,99616.51
2023-07-15T22:50:55.865Z,99611.67
2023-07-15T22:53:25.557Z,99613.75
2023-07-15T22:55:54.094Z,99606.73
2023-07-15T22:58:22.553Z,99607.85
2023-07-15T23:00:57.306Z,99600.55
2023-07-15T23:03:26.621Z,99590.21
2023-07-15T23:05:55.672Z,99590.27
2023-07-15T23:08:23.963Z,99593.58
2023-07-15T23:10:52.672Z,99592.53
2023-07-15T23:13:21.154Z,99592.02
2023-07-15T23:15:59.336Z,99587.95
2023-07-15T23:18:35.727Z,99594.46
2023-07-15T23:21:05.085Z,99591.17
2023-07-15T23:23:33.480Z,99591.88
2023-07-15T23:26:02.146Z,99595.15
2023-07-15T23:28:30.550Z,99594.14
2023-07-15T23:30:59.893Z,99590.83
2023-07-15T23:33:28.466Z,99590.02
2023-07-15T23:35:57.069Z,99593.30
2023-07-15T23:38:25.717Z,99587.47
2023-07-15T23:40:54.857Z,99592.73
2023-07-15T23:43:23.843Z,99598.52
2023-07-15T23:45:52.271Z,99601.36
2023-07-15T23:48:20.628Z,99603.44
2023-07-15T23:50:48.965Z,99607.73
2023-07-15T23:53:17.334Z,99604.33
2023-07-15T23:55:45.651Z,99585.29
2023-07-15T23:58:13.984Z,99581.73
